Startpagina
METAR-TAF:

METAR-TAF

Vliegvelden :

Latacunga, Ecuador

breedte: 00-55S, lengte: 078-37W, hoogte: 2785 m

Actueel weer

Dit bericht is 9 minuten geleden gemaakt, om 07:00 UTC
Wind 6 kt uit het noordnoordoosten
Temperatuur 10°C
Vochtigheid 82%
Druk 1028 hPa
Zicht 10 km of meer
Weinig wolken op 3000 ft
Gebroken wolken op 10000 ft

METAR: SELT 150700Z 02006KT 9999 FEW030 BKN100 10/07 Q1028

Tijdstip: 02:09 (07:09 UTC)

Verwachting

Dit bericht is 2 uur en het 49 minuten geleden gemaakt, om 04:20 UTC
Verwachting geldig van 15 om 06 UTC tot 16 om 06 UTC
Wind 3 kt uit variabele richting
Zicht 10 km of meer
Verspreide wolken op 3000 ft
Verspreide wolken op 10000 ft
Wijzigt naar
van 15 om 13 UTC tot 15 om 14 UTC
Wind 6 kt uit het zuiden
Tijdelijke
van 15 om 20 UTC tot 15 om 22 UTC
Wind 14 kt uit het noorden
Gebroken wolken op 3300 ft
Verspreide wolken op 10000 ft
regenbuien

TAF: SELT 150420Z 1506/1606 VRB03KT 9999 SCT030 SCT100 BECMG 1513/1514 18006KT TEMPO 1520/1522 35014KT SHRA BKN033 SCT100 TX21/1519Z TN08/1511Z

Waarnemingen en weersverwachtingen van meer dan 4000 vliegvelden (METAR en TAF).

De beschikbare stations zijn de gele en rode punten op de kaart.

Ga met uw muis naar het station om de naam te zien.

Klik dan om waarnemingen en weersverwachtingen te zien.

kaart wijzigen: klik op de groene knoppen met een zwart kruis om in te zoomen, op de groene knop met een streepje om uit te zoomen of op de groene pijlen voor aangrenzende kaarten.


METAR-TAF: